createdAt,value
2019-04-06T00:01:32.133Z,99034.97
2019-04-06T00:04:02.541Z,99040.45
2019-04-06T00:06:32.978Z,99039.09
2019-04-06T00:09:04.996Z,99035.25
2019-04-06T00:11:35.770Z,99031.59
2019-04-06T00:14:06.629Z,99036.92
2019-04-06T00:16:37.127Z,99035.13
2019-04-06T00:19:07.564Z,99042.25
2019-04-06T00:21:37.997Z,99037.44
2019-04-06T00:24:08.507Z,99036.62
2019-04-06T00:26:38.996Z,99036.62
2019-04-06T00:29:09.720Z,99038.26
2019-04-06T00:31:57.761Z,99041.27
2019-04-06T00:34:28.280Z,99045.06
2019-04-06T00:36:58.741Z,99039.09
2019-04-06T00:39:29.553Z,99036.55
2019-04-06T00:41:59.993Z,99046.03
2019-04-06T00:44:30.821Z,99040.36
2019-04-06T00:47:01.324Z,99040.06
2019-04-06T00:49:35.781Z,99038.69
2019-04-06T00:52:07.301Z,99036.19
2019-04-06T00:54:37.746Z,99036.71
2019-04-06T00:57:08.597Z,99036.19
2019-04-06T00:59:39.967Z,99043.52
2019-04-06T01:02:10.517Z,99039.84
2019-04-06T01:04:40.979Z,99039.18
2019-04-06T01:07:11.460Z,99039.16
2019-04-06T01:09:41.908Z,99038.83
2019-04-06T01:12:12.438Z,99038.45
2019-04-06T01:14:43.298Z,99040.95
2019-04-06T01:17:13.748Z,99041.37
2019-04-06T01:19:44.398Z,99040.90
2019-04-06T01:22:15.347Z,99040.03
2019-04-06T01:24:45.823Z,99039.69
2019-04-06T01:27:16.625Z,99040.03
2019-04-06T01:29:47.945Z,99042.34
2019-04-06T01:32:18.447Z,99044.69
2019-04-06T01:34:48.916Z,99046.13
2019-04-06T01:37:19.422Z,99051.95
2019-04-06T01:39:49.870Z,99058.78
2019-04-06T01:42:20.482Z,99053.94
2019-04-06T01:44:51.340Z,99052.61
2019-04-06T01:47:21.991Z,99047.45
2019-04-06T01:49:52.609Z,99044.48
2019-04-06T01:52:23.167Z,99055.03
2019-04-06T01:54:54.113Z,99056.94
2019-04-06T01:57:24.605Z,99051.23
2019-04-06T01:59:55.151Z,99061.79
2019-04-06T02:02:34.001Z,99054.94
2019-04-06T02:05:04.706Z,99052.09
2019-04-06T02:07:35.239Z,99049.23
2019-04-06T02:10:07.408Z,99052.05
2019-04-06T02:12:37.855Z,99050.41
2019-04-06T02:15:08.501Z,99043.98
2019-04-06T02:17:38.993Z,99032.75
2019-04-06T02:20:09.836Z,99014.53
2019-04-06T02:22:40.374Z,99025.93
2019-04-06T02:25:11.241Z,99058.43
2019-04-06T02:27:42.081Z,99047.39
2019-04-06T02:30:19.865Z,99061.41
2019-04-06T02:33:07.969Z,99053.65
2019-04-06T02:35:49.750Z,99051.13
2019-04-06T02:38:57.414Z,99050.36
2019-04-06T02:42:02.152Z,99052.88
2019-04-06T02:44:32.648Z,99056.01
2019-04-06T02:47:03.088Z,99057.43
2019-04-06T02:49:33.860Z,99050.83
2019-04-06T02:52:04.307Z,99043.34
2019-04-06T02:54:35.676Z,99039.67
2019-04-06T02:57:06.168Z,99036.52
2019-04-06T02:59:37.446Z,99038.84
2019-04-06T03:02:07.888Z,99039.38
2019-04-06T03:04:38.390Z,99045.26
2019-04-06T03:07:08.834Z,99038.14
2019-04-06T03:09:39.690Z,99040.80
2019-04-06T03:12:10.190Z,99042.98
2019-04-06T03:14:44.001Z,99033.63
2019-04-06T03:17:12.767Z,99039.92
2019-04-06T03:19:43.346Z,99038.94
2019-04-06T03:22:13.782Z,99038.27
2019-04-06T03:24:44.218Z,99037.42
2019-04-06T03:27:14.693Z,99032.73
2019-04-06T03:29:56.508Z,99032.14
2019-04-06T03:32:17.272Z,99036.22
2019-04-06T03:34:47.765Z,99029.55
2019-04-06T03:37:18.287Z,99031.97
2019-04-06T03:39:48.735Z,99037.75
2019-04-06T03:42:19.212Z,99037.55
2019-04-06T03:44:49.734Z,99025.17
2019-04-06T03:47:20.200Z,99027.53
2019-04-06T03:49:50.729Z,99029.84
2019-04-06T03:52:21.181Z,99032.84
2019-04-06T03:54:51.670Z,99023.21
2019-04-06T03:57:22.557Z,99021.53
2019-04-06T03:59:53.039Z,99025.83
2019-04-06T04:02:23.463Z,99023.34
2019-04-06T04:04:54.150Z,99016.55
2019-04-06T04:07:24.613Z,99013.20
2019-04-06T04:09:55.424Z,99011.93
2019-04-06T04:12:26.322Z,99009.63
2019-04-06T04:14:56.834Z,99004.56
2019-04-06T04:17:27.277Z,99014.19
2019-04-06T04:19:57.777Z,99006.74
2019-04-06T04:22:28.673Z,99005.57
2019-04-06T04:24:59.398Z,99008.89
2019-04-06T04:27:30.821Z,99007.75
2019-04-06T04:30:01.571Z,99000.88
2019-04-06T04:32:32.435Z,99003.37
2019-04-06T04:35:03.000Z,99004.91
2019-04-06T04:37:33.440Z,99008.64
2019-04-06T04:40:04.099Z,99010.72
2019-04-06T04:42:34.901Z,99014.47
2019-04-06T04:45:06.136Z,99010.11
2019-04-06T04:47:37.030Z,99016.34
2019-04-06T04:50:08.365Z,99016.70
2019-04-06T04:52:38.859Z,99019.59
2019-04-06T04:55:09.509Z,99019.73
2019-04-06T04:57:41.976Z,99019.08
2019-04-06T05:00:13.014Z,99016.93
2019-04-06T05:02:43.938Z,99017.20
2019-04-06T05:05:14.906Z,99020.39
2019-04-06T05:07:45.358Z,99016.92
2019-04-06T05:10:16.046Z,99022.09
2019-04-06T05:12:46.546Z,99026.90
2019-04-06T05:15:23.742Z,99023.94
2019-04-06T05:17:54.612Z,99023.52
2019-04-06T05:20:25.364Z,99022.80
2019-04-06T05:22:56.186Z,99035.48
2019-04-06T05:25:26.675Z,99035.68
2019-04-06T05:27:57.135Z,99039.08
2019-04-06T05:30:27.607Z,99036.11
2019-04-06T05:32:58.381Z,99043.76
2019-04-06T05:35:28.821Z,99047.05
2019-04-06T05:37:59.525Z,99035.11
2019-04-06T05:40:30.338Z,99040.76
2019-04-06T05:43:00.833Z,99035.55
2019-04-06T05:45:31.349Z,99044.09
2019-04-06T05:48:03.762Z,99041.81
2019-04-06T05:50:34.210Z,99045.20
2019-04-06T05:53:04.659Z,99046.05
2019-04-06T05:55:36.269Z,99052.09
2019-04-06T05:58:09.864Z,99050.23
2019-04-06T06:00:40.601Z,99048.80
2019-04-06T06:03:11.523Z,99060.24
2019-04-06T06:05:42.302Z,99066.50
2019-04-06T06:08:13.537Z,99065.02
2019-04-06T06:10:45.026Z,99056.73
2019-04-06T06:13:15.850Z,99062.70
2019-04-06T06:15:46.303Z,99064.38
2019-04-06T06:18:25.835Z,99062.45
2019-04-06T06:20:51.056Z,99055.31
2019-04-06T06:23:21.472Z,99060.23
2019-04-06T06:25:52.150Z,99059.28
2019-04-06T06:28:22.946Z,99055.77
2019-04-06T06:30:54.867Z,99063.91
2019-04-06T06:33:25.455Z,99057.48
2019-04-06T06:35:56.341Z,99063.23
2019-04-06T06:38:26.789Z,99058.91
2019-04-06T06:40:57.499Z,99058.38
2019-04-06T06:43:28.092Z,99051.00
2019-04-06T06:45:58.571Z,99055.86
2019-04-06T06:48:29.321Z,99059.20
2019-04-06T06:51:00.071Z,99063.42
2019-04-06T06:53:30.914Z,99065.09
2019-04-06T06:56:01.761Z,99057.70
2019-04-06T06:58:32.395Z,99059.80
2019-04-06T07:01:03.605Z,99057.85
2019-04-06T07:03:34.187Z,99057.08
2019-04-06T07:06:06.408Z,99057.77
2019-04-06T07:08:37.713Z,99055.49
2019-04-06T07:11:09.043Z,99059.30
2019-04-06T07:13:39.540Z,99051.34
2019-04-06T07:16:10.305Z,99050.54
2019-04-06T07:18:41.839Z,99050.38
2019-04-06T07:21:12.596Z,99049.74
2019-04-06T07:23:43.101Z,99056.89
2019-04-06T07:26:13.636Z,99058.09
2019-04-06T07:28:44.401Z,99056.77
2019-04-06T07:31:15.211Z,99058.64
2019-04-06T07:33:47.686Z,99058.00
2019-04-06T07:36:18.130Z,99051.85
2019-04-06T07:38:48.568Z,99059.98
2019-04-06T07:41:20.650Z,99059.84
2019-04-06T07:43:51.331Z,99062.02
2019-04-06T07:46:21.863Z,99065.03
2019-04-06T07:48:52.312Z,99067.69
2019-04-06T07:51:22.813Z,99066.38
2019-04-06T07:53:53.256Z,99066.71
2019-04-06T07:56:25.165Z,99065.38
2019-04-06T07:58:56.116Z,99062.69
2019-04-06T08:01:26.946Z,99066.51
2019-04-06T08:03:58.077Z,99061.68
2019-04-06T08:06:28.724Z,99066.17
2019-04-06T08:08:59.161Z,99058.16
2019-04-06T08:11:29.655Z,99061.47
2019-04-06T08:14:01.932Z,99064.13
2019-04-06T08:16:32.729Z,99058.14
2019-04-06T08:19:04.293Z,99055.94
2019-04-06T08:21:35.088Z,99061.25
2019-04-06T08:24:06.006Z,99067.71
2019-04-06T08:26:36.502Z,99066.90
2019-04-06T08:29:06.962Z,99064.55
2019-04-06T08:31:38.344Z,99068.67
2019-04-06T08:34:08.846Z,99069.64
2019-04-06T08:36:39.290Z,99072.77
2019-04-06T08:39:10.389Z,99071.44
2019-04-06T08:41:42.213Z,99070.70
2019-04-06T08:44:13.334Z,99063.67
2019-04-06T08:46:43.741Z,99069.85
2019-04-06T08:49:14.230Z,99065.61
2019-04-06T08:51:44.757Z,99067.02
2019-04-06T08:54:15.210Z,99065.88
2019-04-06T08:56:45.713Z,99067.06
2019-04-06T08:59:16.557Z,99075.31
2019-04-06T09:01:47.008Z,99069.25
2019-04-06T09:04:17.609Z,99070.38
2019-04-06T09:06:48.224Z,99065.08
2019-04-06T09:09:20.476Z,99065.81
2019-04-06T09:11:51.129Z,99066.14
2019-04-06T09:14:21.920Z,99065.91
2019-04-06T09:16:52.341Z,99063.66
2019-04-06T09:19:22.833Z,99062.07
2019-04-06T09:21:53.302Z,99061.24
2019-04-06T09:24:23.734Z,99058.66
2019-04-06T09:26:54.330Z,99057.55
2019-04-06T09:29:25.045Z,99052.42
2019-04-06T09:31:56.634Z,99050.22
2019-04-06T09:34:30.677Z,99050.27
2019-04-06T09:37:00.747Z,99044.66
2019-04-06T09:39:31.529Z,99050.53
2019-04-06T09:42:02.709Z,99042.61
2019-04-06T09:45:01.532Z,99049.73
2019-04-06T09:47:49.895Z,99040.88
2019-04-06T09:50:32.095Z,99040.20
2019-04-06T09:53:41.732Z,99036.39
2019-04-06T09:56:28.580Z,99040.64
2019-04-06T09:59:35.271Z,99040.16
2019-04-06T10:02:19.289Z,99036.01
2019-04-06T10:05:08.665Z,99032.07
2019-04-06T10:08:04.360Z,99030.92
2019-04-06T10:10:48.409Z,99035.44
2019-04-06T10:13:39.059Z,99028.20
2019-04-06T10:16:28.589Z,99024.51
2019-04-06T10:19:27.318Z,99021.81
2019-04-06T10:22:19.614Z,99020.70
2019-04-06T10:25:15.460Z,99024.55
2019-04-06T10:28:14.799Z,99021.35
2019-04-06T10:31:04.137Z,99018.22
2019-04-06T10:33:50.726Z,99020.38
2019-04-06T10:36:41.582Z,99014.64
2019-04-06T10:39:27.826Z,99018.13
2019-04-06T10:42:07.000Z,99013.91
2019-04-06T10:44:59.882Z,99012.65
2019-04-06T10:47:40.414Z,99010.87
2019-04-06T10:50:42.463Z,99011.24
2019-04-06T10:53:24.891Z,99017.57
2019-04-06T10:56:24.263Z,99015.99
2019-04-06T10:59:19.789Z,99014.00
2019-04-06T11:02:21.946Z,99007.35
2019-04-06T11:04:57.929Z,99010.39
2019-04-06T11:07:46.059Z,99014.98
2019-04-06T11:10:45.187Z,99010.63
2019-04-06T11:13:32.430Z,99007.77
2019-04-06T11:16:19.196Z,99004.64
2019-04-06T11:19:03.895Z,98999.00
2019-04-06T11:21:52.640Z,98996.76
2019-04-06T11:24:41.238Z,98998.67
2019-04-06T11:27:42.875Z,98996.73
2019-04-06T11:30:32.923Z,98994.63
2019-04-06T11:33:22.024Z,98990.34
2019-04-06T11:36:23.619Z,98994.67
2019-04-06T11:39:08.919Z,98989.03
2019-04-06T11:42:01.190Z,98982.66
2019-04-06T11:44:50.675Z,98984.68
2019-04-06T11:47:26.822Z,98988.56
2019-04-06T11:50:16.196Z,98980.73
2019-04-06T11:53:04.340Z,98983.83
2019-04-06T11:56:00.494Z,98977.64
2019-04-06T11:58:59.041Z,98976.58
2019-04-06T12:02:06.932Z,98978.06
2019-04-06T12:04:53.781Z,98978.06
2019-04-06T12:07:31.743Z,98975.65
2019-04-06T12:10:11.630Z,98975.65
2019-04-06T12:12:56.248Z,98980.14
2019-04-06T12:15:46.847Z,98982.84
2019-04-06T12:18:37.650Z,98976.39
2019-04-06T12:21:13.901Z,98976.30
2019-04-06T12:23:56.065Z,98971.05
2019-04-06T12:26:45.617Z,98969.44
2019-04-06T12:29:27.850Z,98969.86
2019-04-06T12:32:35.531Z,98963.66
2019-04-06T12:35:24.649Z,98961.76
2019-04-06T12:38:05.605Z,98950.31
2019-04-06T12:41:05.774Z,98947.09
2019-04-06T12:43:57.749Z,98949.25
2019-04-06T12:46:38.552Z,98947.03
2019-04-06T12:49:30.274Z,98941.83
2019-04-06T12:52:24.350Z,98936.52
2019-04-06T12:55:09.541Z,98937.50
2019-04-06T12:57:59.311Z,98940.30
2019-04-06T13:00:54.357Z,98933.43
2019-04-06T13:03:42.693Z,98926.09
2019-04-06T13:06:31.386Z,98923.34
2019-04-06T13:09:19.150Z,98927.14
2019-04-06T13:12:09.032Z,98922.40
2019-04-06T13:14:48.417Z,98928.18
2019-04-06T13:17:32.347Z,98928.03
2019-04-06T13:20:14.625Z,98924.29
2019-04-06T13:23:08.224Z,98919.41
2019-04-06T13:26:12.926Z,98913.42
2019-04-06T13:28:52.473Z,98903.57
2019-04-06T13:31:55.127Z,98899.01
2019-04-06T13:34:53.763Z,98903.79
2019-04-06T13:37:55.954Z,98898.98
2019-04-06T13:40:55.112Z,98894.94
2019-04-06T13:43:47.358Z,98892.12
2019-04-06T13:46:35.549Z,98881.31
2019-04-06T13:49:23.809Z,98884.87
2019-04-06T13:52:07.493Z,98882.44
2019-04-06T13:54:52.902Z,98885.18
2019-04-06T13:57:47.800Z,98878.84
2019-04-06T14:00:40.278Z,98876.54
2019-04-06T14:03:28.946Z,98878.88
2019-04-06T14:06:18.132Z,98876.73
2019-04-06T14:09:01.295Z,98871.16
2019-04-06T14:11:47.301Z,98864.78
2019-04-06T14:14:29.195Z,98864.78
2019-04-06T14:17:14.300Z,98868.89
2019-04-06T14:20:06.509Z,98858.64
2019-04-06T14:22:58.715Z,98859.63
2019-04-06T14:25:47.049Z,98856.44
2019-04-06T14:28:36.859Z,98861.28
2019-04-06T14:31:35.751Z,98855.84
2019-04-06T14:34:34.414Z,98869.63
2019-04-06T14:37:19.814Z,98863.76
2019-04-06T14:40:09.346Z,98855.94
2019-04-06T14:43:10.065Z,98857.42
2019-04-06T14:45:58.190Z,98857.59
2019-04-06T14:48:45.853Z,98858.53
2019-04-06T14:51:28.418Z,98857.00
2019-04-06T14:54:21.464Z,98853.01
2019-04-06T14:57:16.865Z,98852.67
2019-04-06T15:00:13.310Z,98858.39
2019-04-06T15:02:54.766Z,98859.95
2019-04-06T15:05:43.001Z,98856.00
2019-04-06T15:08:20.709Z,98852.44
2019-04-06T15:10:58.436Z,98851.88
2019-04-06T15:13:44.379Z,98854.34
2019-04-06T15:16:20.768Z,98848.91
2019-04-06T15:19:25.282Z,98848.62
2019-04-06T15:22:14.844Z,98846.52
2019-04-06T15:25:04.754Z,98844.59
2019-04-06T15:28:00.718Z,98848.12
2019-04-06T15:31:03.352Z,98849.16
2019-04-06T15:33:52.704Z,98848.07
2019-04-06T15:36:43.886Z,98843.64
2019-04-06T15:39:39.368Z,98844.31
2019-04-06T15:42:34.659Z,98848.48
2019-04-06T15:45:22.351Z,98848.92
2019-04-06T15:48:10.994Z,98850.23
2019-04-06T15:50:53.044Z,98856.04
2019-04-06T15:53:41.108Z,98851.33
2019-04-06T15:56:29.834Z,98849.52
2019-04-06T15:59:29.261Z,98846.70
2019-04-06T16:02:19.281Z,98849.63
2019-04-06T16:05:11.915Z,98840.38
2019-04-06T16:08:07.690Z,98848.23
2019-04-06T16:11:03.271Z,98850.58
2019-04-06T16:13:58.514Z,98852.31
2019-04-06T16:16:47.872Z,98853.01
2019-04-06T16:19:46.578Z,98857.61
2019-04-06T16:22:42.338Z,98851.36
2019-04-06T16:25:25.122Z,98850.91
2019-04-06T16:28:07.998Z,98856.78
2019-04-06T16:31:07.135Z,98855.48
2019-04-06T16:33:46.260Z,98858.02
2019-04-06T16:36:26.085Z,98856.66
2019-04-06T16:39:14.654Z,98851.62
2019-04-06T16:42:07.956Z,98846.50
2019-04-06T16:44:56.435Z,98850.86
2019-04-06T16:47:38.066Z,98850.50
2019-04-06T16:50:26.494Z,98844.16
2019-04-06T16:53:14.553Z,98847.05
2019-04-06T16:55:50.395Z,98851.25
2019-04-06T16:58:31.039Z,98858.56
2019-04-06T17:01:19.904Z,98861.02
2019-04-06T17:04:18.398Z,98852.54
2019-04-06T17:07:11.039Z,98852.92
2019-04-06T17:10:03.323Z,98853.16
2019-04-06T17:12:59.414Z,98848.61
2019-04-06T17:15:44.578Z,98853.81
2019-04-06T17:18:40.080Z,98852.73
2019-04-06T17:21:29.491Z,98849.94
2019-04-06T17:24:28.638Z,98844.59
2019-04-06T17:27:21.183Z,98844.59
2019-04-06T17:30:06.530Z,98840.59
2019-04-06T17:33:00.417Z,98839.75
2019-04-06T17:35:59.355Z,98839.24
2019-04-06T17:38:45.558Z,98836.84
2019-04-06T17:41:28.789Z,98840.83
2019-04-06T17:44:27.713Z,98829.45
2019-04-06T17:47:08.738Z,98848.36
2019-04-06T17:50:13.398Z,98831.88
2019-04-06T17:53:01.220Z,98840.79
2019-04-06T17:55:41.570Z,98843.21
2019-04-06T17:58:41.884Z,98845.42
2019-04-06T18:01:30.831Z,98849.56
2019-04-06T18:04:28.217Z,98851.05
2019-04-06T18:07:09.347Z,98856.38
2019-04-06T18:10:05.006Z,98855.62
2019-04-06T18:12:54.199Z,98862.06
2019-04-06T18:15:25.009Z,98857.64
2019-04-06T18:17:56.400Z,98859.91
2019-04-06T18:20:26.898Z,98864.19
2019-04-06T18:22:58.062Z,98853.90
2019-04-06T18:25:28.699Z,98863.66
2019-04-06T18:27:59.203Z,98862.69
2019-04-06T18:30:29.661Z,98868.89
2019-04-06T18:33:06.595Z,98871.80
2019-04-06T18:35:37.334Z,98873.64
2019-04-06T18:38:25.426Z,98876.71
2019-04-06T18:40:55.940Z,98872.95
2019-04-06T18:43:26.973Z,98870.66
2019-04-06T18:45:57.628Z,98876.72
2019-04-06T18:48:28.486Z,98873.05
2019-04-06T18:50:59.312Z,98871.41
2019-04-06T18:53:31.012Z,98869.58
2019-04-06T18:56:01.473Z,98874.80
2019-04-06T18:58:32.539Z,98872.99
2019-04-06T19:01:03.702Z,98878.48
2019-04-06T19:03:35.603Z,98879.51
2019-04-06T19:06:06.485Z,98887.09
2019-04-06T19:08:38.025Z,98887.17
2019-04-06T19:11:09.672Z,98884.77
2019-04-06T19:13:41.822Z,98884.30
2019-04-06T19:16:12.956Z,98878.61
2019-04-06T19:18:43.547Z,98881.52
2019-04-06T19:21:14.498Z,98882.86
2019-04-06T19:23:45.067Z,98882.77
2019-04-06T19:26:15.537Z,98879.14
2019-04-06T19:28:48.015Z,98875.00
2019-04-06T19:31:19.366Z,98882.89
2019-04-06T19:33:52.194Z,98880.53
2019-04-06T19:36:23.126Z,98881.09
2019-04-06T19:38:54.096Z,98873.94
2019-04-06T19:41:26.074Z,98876.75
2019-04-06T19:43:56.896Z,98877.06
2019-04-06T19:46:28.352Z,98876.12
2019-04-06T19:48:59.719Z,98870.64
2019-04-06T19:51:30.903Z,98869.31
2019-04-06T19:54:04.439Z,98869.65
2019-04-06T19:56:34.666Z,98874.20
2019-04-06T19:59:06.207Z,98875.75
2019-04-06T20:01:36.715Z,98880.64
2019-04-06T20:04:08.079Z,98875.45
2019-04-06T20:06:39.766Z,98873.41
2019-04-06T20:09:10.812Z,98871.97
2019-04-06T20:11:41.336Z,98866.91
2019-04-06T20:14:14.540Z,98862.36
2019-04-06T20:16:45.154Z,98867.20
2019-04-06T20:19:16.632Z,98864.72
2019-04-06T20:21:47.579Z,98860.38
2019-04-06T20:24:18.281Z,98862.25
2019-04-06T20:26:49.513Z,98862.67
2019-04-06T20:29:20.489Z,98861.00
2019-04-06T20:31:51.026Z,98857.78
2019-04-06T20:34:22.137Z,98852.02
2019-04-06T20:36:54.693Z,98855.84
2019-04-06T20:39:25.230Z,98851.69
2019-04-06T20:41:57.363Z,98853.44
2019-04-06T20:44:28.476Z,98857.46
2019-04-06T20:46:59.717Z,98856.72
2019-04-06T20:49:30.213Z,98852.59
2019-04-06T20:52:02.821Z,98850.22
2019-04-06T20:54:33.657Z,98853.33
2019-04-06T20:57:04.748Z,98847.53
2019-04-06T20:59:35.896Z,98852.69
2019-04-06T21:02:06.630Z,98850.95
2019-04-06T21:04:37.323Z,98847.22
2019-04-06T21:07:08.326Z,98848.49
2019-04-06T21:09:39.311Z,98856.63
2019-04-06T21:12:10.572Z,98851.91
2019-04-06T21:14:41.529Z,98850.14
2019-04-06T21:17:12.245Z,98853.05
2019-04-06T21:19:42.975Z,98848.59
2019-04-06T21:22:13.811Z,98852.84
2019-04-06T21:24:44.311Z,98857.91
2019-04-06T21:27:15.023Z,98856.35
2019-04-06T21:29:47.458Z,98854.19
2019-04-06T21:32:18.039Z,98850.05
2019-04-06T21:34:49.436Z,98847.36
2019-04-06T21:37:20.073Z,98850.86
2019-04-06T21:39:50.565Z,98852.69
2019-04-06T21:42:21.956Z,98850.69
2019-04-06T21:44:52.434Z,98855.84
2019-04-06T21:47:24.076Z,98849.93
2019-04-06T21:49:54.726Z,98850.16
2019-04-06T21:52:25.177Z,98857.48
2019-04-06T21:54:56.740Z,98858.09
2019-04-06T21:57:27.382Z,98857.59
2019-04-06T21:59:57.955Z,98852.12
2019-04-06T22:02:29.573Z,98856.32
2019-04-06T22:05:00.429Z,98856.03
2019-04-06T22:07:30.870Z,98851.56
2019-04-06T22:10:01.702Z,98857.70
2019-04-06T22:12:32.176Z,98856.86
2019-04-06T22:15:03.071Z,98856.31
2019-04-06T22:17:34.886Z,98858.11
2019-04-06T22:20:05.992Z,98859.09
2019-04-06T22:22:36.859Z,98858.44
2019-04-06T22:25:08.419Z,98857.47
2019-04-06T22:27:39.298Z,98862.42
2019-04-06T22:30:11.319Z,98866.22
2019-04-06T22:32:41.975Z,98865.94
2019-04-06T22:35:12.895Z,98876.41
2019-04-06T22:37:43.689Z,98874.13
2019-04-06T22:40:16.516Z,98869.58
2019-04-06T22:42:47.022Z,98867.95
2019-04-06T22:45:19.710Z,98868.25
2019-04-06T22:47:50.761Z,98867.80
2019-04-06T22:50:21.305Z,98869.11
2019-04-06T22:52:51.745Z,98867.63
2019-04-06T22:55:22.242Z,98865.73
2019-04-06T22:57:53.283Z,98866.16
2019-04-06T23:00:36.321Z,98863.30
2019-04-06T23:03:26.442Z,98858.66
2019-04-06T23:06:00.555Z,98855.98
2019-04-06T23:08:31.662Z,98856.38
2019-04-06T23:11:02.540Z,98860.81
2019-04-06T23:13:33.398Z,98865.58
2019-04-06T23:16:05.868Z,98861.89
2019-04-06T23:18:38.961Z,98866.10
2019-04-06T23:21:10.914Z,98863.42
2019-04-06T23:23:41.875Z,98859.41
2019-04-06T23:26:12.575Z,98854.12
2019-04-06T23:28:43.471Z,98855.85
2019-04-06T23:31:14.744Z,98859.60
2019-04-06T23:33:45.856Z,98857.67
2019-04-06T23:36:17.034Z,98857.73
2019-04-06T23:38:47.623Z,98856.59
2019-04-06T23:41:18.464Z,98856.75
2019-04-06T23:43:48.968Z,98863.44
2019-04-06T23:46:19.568Z,98863.83
2019-04-06T23:48:50.097Z,98864.77
2019-04-06T23:51:21.026Z,98865.02
2019-04-06T23:53:51.456Z,98867.22
2019-04-06T23:56:21.967Z,98861.93
2019-04-06T23:58:52.419Z,98865.48
